KQEW

Sangju Rws

Sangju Rws, South Korea
METAR KQEW 231200Z AUTO 23003KT 9999 FEW042 14/09 A3005 RMK A02 TSNO
Observed Flight Rules
Oct-23 @ 12:00 UTC (19 minutes ago) Visual Flight Rules
Wind Visibility Clouds
230° at 3 knots 10,000+ meters
  • Few at 4,200' AGL
Temperatures Readings
Current 14°C / 57°F
Dewpoint 9°C / 48°F
Humidity 72%
Altimeter 30.05" Hg
Pressure 1018 hPa
METAR KQEW 231200Z AUTO 23003KT 9999 FEW042 14/09 A3005 RMK A02 TSNO
Observed Flight Rules
Oct-23 @ 12:00 UTC
(19 minutes ago)
VFR
Wind Visibility
230° at 3 knots 10,000+ meters
Clouds
  • Few at 4,200' AGL
Temperature Dewpoint
14°C / 57°F 9°C / 48°F
Humidity Altimeter Pressure
72% 30.05" Hg 1018 hPa